sensor_id;sensor_type;location;lat;lon;timestamp;P1;durP1;ratioP1;P2;durP2;ratioP2
10586;SDS011;5341;47.606;7.576;2023-08-12T00:02:15;2.30;;;2.10;;
10586;SDS011;5341;47.606;7.576;2023-08-12T00:04:44;4.93;;;2.33;;
10586;SDS011;5341;47.606;7.576;2023-08-12T00:07:12;2.53;;;2.03;;
10586;SDS011;5341;47.606;7.576;2023-08-12T00:09:40;3.25;;;2.63;;
10586;SDS011;5341;47.606;7.576;2023-08-12T00:12:09;3.10;;;2.17;;
10586;SDS011;5341;47.606;7.576;2023-08-12T00:14:37;2.85;;;2.20;;
10586;SDS011;5341;47.606;7.576;2023-08-12T00:17:05;4.20;;;2.10;;
10586;SDS011;5341;47.606;7.576;2023-08-12T00:19:33;2.80;;;2.10;;
10586;SDS011;5341;47.606;7.576;2023-08-12T00:22:02;2.30;;;1.92;;
10586;SDS011;5341;47.606;7.576;2023-08-12T00:24:30;3.70;;;2.03;;
10586;SDS011;5341;47.606;7.576;2023-08-12T00:26:58;2.53;;;2.10;;
10586;SDS011;5341;47.606;7.576;2023-08-12T00:29:26;2.58;;;2.38;;
10586;SDS011;5341;47.606;7.576;2023-08-12T00:31:53;2.55;;;2.20;;
10586;SDS011;5341;47.606;7.576;2023-08-12T00:34:21;2.35;;;2.03;;
10586;SDS011;5341;47.606;7.576;2023-08-12T00:36:49;2.55;;;1.90;;
10586;SDS011;5341;47.606;7.576;2023-08-12T00:39:18;2.30;;;2.10;;
10586;SDS011;5341;47.606;7.576;2023-08-12T00:41:46;2.20;;;2.00;;
10586;SDS011;5341;47.606;7.576;2023-08-12T00:44:13;2.85;;;2.10;;
10586;SDS011;5341;47.606;7.576;2023-08-12T00:46:41;3.45;;;2.20;;
10586;SDS011;5341;47.606;7.576;2023-08-12T00:49:10;3.10;;;2.17;;
10586;SDS011;5341;47.606;7.576;2023-08-12T00:51:39;2.67;;;2.20;;
10586;SDS011;5341;47.606;7.576;2023-08-12T00:54:09;2.80;;;2.40;;
10586;SDS011;5341;47.606;7.576;2023-08-12T00:56:44;3.35;;;2.55;;
10586;SDS011;5341;47.606;7.576;2023-08-12T00:59:12;2.58;;;2.38;;
10586;SDS011;5341;47.606;7.576;2023-08-12T01:01:45;2.45;;;2.25;;
10586;SDS011;5341;47.606;7.576;2023-08-12T01:04:13;2.70;;;2.50;;
10586;SDS011;5341;47.606;7.576;2023-08-12T01:06:40;3.22;;;2.35;;
10586;SDS011;5341;47.606;7.576;2023-08-12T01:09:08;2.33;;;2.13;;
10586;SDS011;5341;47.606;7.576;2023-08-12T01:11:36;3.78;;;2.35;;
10586;SDS011;5341;47.606;7.576;2023-08-12T01:14:12;5.13;;;2.40;;
10586;SDS011;5341;47.606;7.576;2023-08-12T01:16:45;4.28;;;2.30;;
10586;SDS011;5341;47.606;7.576;2023-08-12T01:19:18;3.38;;;2.63;;
10586;SDS011;5341;47.606;7.576;2023-08-12T01:21:54;4.00;;;2.60;;
10586;SDS011;5341;47.606;7.576;2023-08-12T01:24:27;4.57;;;2.90;;
10586;SDS011;5341;47.606;7.576;2023-08-12T01:27:03;3.47;;;2.47;;
10586;SDS011;5341;47.606;7.576;2023-08-12T01:29:31;3.25;;;2.47;;
10586;SDS011;5341;47.606;7.576;2023-08-12T01:32:01;2.60;;;2.40;;
10586;SDS011;5341;47.606;7.576;2023-08-12T01:34:39;3.88;;;2.55;;
10586;SDS011;5341;47.606;7.576;2023-08-12T01:37:14;2.67;;;2.47;;
10586;SDS011;5341;47.606;7.576;2023-08-12T01:39:53;2.63;;;2.38;;
10586;SDS011;5341;47.606;7.576;2023-08-12T01:42:23;2.60;;;2.40;;
10586;SDS011;5341;47.606;7.576;2023-08-12T01:44:53;3.28;;;2.40;;
10586;SDS011;5341;47.606;7.576;2023-08-12T01:47:21;2.42;;;2.22;;
10586;SDS011;5341;47.606;7.576;2023-08-12T01:49:48;4.07;;;2.22;;
10586;SDS011;5341;47.606;7.576;2023-08-12T01:52:16;2.60;;;2.40;;
10586;SDS011;5341;47.606;7.576;2023-08-12T01:54:43;4.43;;;2.40;;
10586;SDS011;5341;47.606;7.576;2023-08-12T01:57:12;2.92;;;2.33;;
10586;SDS011;5341;47.606;7.576;2023-08-12T01:59:39;3.17;;;2.30;;
10586;SDS011;5341;47.606;7.576;2023-08-12T02:02:09;2.80;;;2.50;;
10586;SDS011;5341;47.606;7.576;2023-08-12T02:04:37;2.90;;;2.40;;
10586;SDS011;5341;47.606;7.576;2023-08-12T02:07:05;2.38;;;2.17;;
10586;SDS011;5341;47.606;7.576;2023-08-12T02:09:33;2.45;;;2.20;;
10586;SDS011;5341;47.606;7.576;2023-08-12T02:12:00;2.70;;;2.10;;
10586;SDS011;5341;47.606;7.576;2023-08-12T02:14:29;3.78;;;2.30;;
10586;SDS011;5341;47.606;7.576;2023-08-12T02:16:57;3.22;;;2.55;;
10586;SDS011;5341;47.606;7.576;2023-08-12T02:19:35;2.88;;;2.30;;
10586;SDS011;5341;47.606;7.576;2023-08-12T02:22:03;2.60;;;2.40;;
10586;SDS011;5341;47.606;7.576;2023-08-12T02:24:31;2.58;;;2.35;;
10586;SDS011;5341;47.606;7.576;2023-08-12T02:26:58;2.33;;;2.10;;
10586;SDS011;5341;47.606;7.576;2023-08-12T02:29:26;3.50;;;2.50;;
10586;SDS011;5341;47.606;7.576;2023-08-12T02:31:55;2.60;;;2.40;;
10586;SDS011;5341;47.606;7.576;2023-08-12T02:34:23;3.03;;;2.72;;
10586;SDS011;5341;47.606;7.576;2023-08-12T02:36:51;2.90;;;2.55;;
10586;SDS011;5341;47.606;7.576;2023-08-12T02:39:18;4.60;;;2.45;;
10586;SDS011;5341;47.606;7.576;2023-08-12T02:41:46;3.20;;;2.40;;
10586;SDS011;5341;47.606;7.576;2023-08-12T02:44:13;3.17;;;2.72;;
10586;SDS011;5341;47.606;7.576;2023-08-12T02:46:41;3.70;;;2.45;;
10586;SDS011;5341;47.606;7.576;2023-08-12T02:49:10;2.45;;;2.25;;
10586;SDS011;5341;47.606;7.576;2023-08-12T02:51:38;3.75;;;2.63;;
10586;SDS011;5341;47.606;7.576;2023-08-12T02:54:06;4.10;;;2.90;;
10586;SDS011;5341;47.606;7.576;2023-08-12T02:56:34;3.08;;;2.30;;
10586;SDS011;5341;47.606;7.576;2023-08-12T02:59:01;3.08;;;2.50;;
10586;SDS011;5341;47.606;7.576;2023-08-12T03:01:29;2.95;;;2.22;;
10586;SDS011;5341;47.606;7.576;2023-08-12T03:03:57;2.60;;;2.40;;
10586;SDS011;5341;47.606;7.576;2023-08-12T03:06:26;2.78;;;2.53;;
10586;SDS011;5341;47.606;7.576;2023-08-12T03:08:56;3.65;;;2.50;;
10586;SDS011;5341;47.606;7.576;2023-08-12T03:11:24;4.25;;;2.40;;
10586;SDS011;5341;47.606;7.576;2023-08-12T03:13:54;2.50;;;2.20;;
10586;SDS011;5341;47.606;7.576;2023-08-12T03:16:24;4.20;;;2.53;;
10586;SDS011;5341;47.606;7.576;2023-08-12T03:18:53;2.70;;;2.45;;
10586;SDS011;5341;47.606;7.576;2023-08-12T03:21:20;2.42;;;2.22;;
10586;SDS011;5341;47.606;7.576;2023-08-12T03:23:52;6.95;;;2.67;;
10586;SDS011;5341;47.606;7.576;2023-08-12T03:26:19;5.43;;;2.55;;
10586;SDS011;5341;47.606;7.576;2023-08-12T03:28:48;2.95;;;2.65;;
10586;SDS011;5341;47.606;7.576;2023-08-12T03:31:18;6.32;;;2.60;;
10586;SDS011;5341;47.606;7.576;2023-08-12T03:33:47;3.47;;;2.30;;
10586;SDS011;5341;47.606;7.576;2023-08-12T03:36:14;2.85;;;2.65;;
10586;SDS011;5341;47.606;7.576;2023-08-12T03:38:42;3.45;;;2.72;;
10586;SDS011;5341;47.606;7.576;2023-08-12T03:41:18;2.60;;;2.40;;
10586;SDS011;5341;47.606;7.576;2023-08-12T03:43:46;3.58;;;2.47;;
10586;SDS011;5341;47.606;7.576;2023-08-12T03:46:15;3.40;;;2.38;;
10586;SDS011;5341;47.606;7.576;2023-08-12T03:48:44;3.20;;;2.13;;
10586;SDS011;5341;47.606;7.576;2023-08-12T03:51:12;2.80;;;2.30;;
10586;SDS011;5341;47.606;7.576;2023-08-12T03:53:40;4.18;;;2.58;;
10586;SDS011;5341;47.606;7.576;2023-08-12T03:56:12;2.38;;;2.10;;
10586;SDS011;5341;47.606;7.576;2023-08-12T03:58:44;2.60;;;2.15;;
10586;SDS011;5341;47.606;7.576;2023-08-12T04:01:11;3.03;;;2.58;;
10586;SDS011;5341;47.606;7.576;2023-08-12T04:03:39;2.70;;;2.22;;
10586;SDS011;5341;47.606;7.576;2023-08-12T04:06:06;2.75;;;2.30;;
10586;SDS011;5341;47.606;7.576;2023-08-12T04:08:34;3.15;;;2.40;;
10586;SDS011;5341;47.606;7.576;2023-08-12T04:11:01;2.72;;;2.30;;
10586;SDS011;5341;47.606;7.576;2023-08-12T04:13:28;3.42;;;2.20;;
10586;SDS011;5341;47.606;7.576;2023-08-12T04:15:58;3.30;;;2.40;;
10586;SDS011;5341;47.606;7.576;2023-08-12T04:18:26;3.03;;;2.17;;
10586;SDS011;5341;47.606;7.576;2023-08-12T04:20:53;2.80;;;2.50;;
10586;SDS011;5341;47.606;7.576;2023-08-12T04:23:22;5.72;;;2.55;;
10586;SDS011;5341;47.606;7.576;2023-08-12T04:25:50;2.50;;;2.30;;
10586;SDS011;5341;47.606;7.576;2023-08-12T04:28:21;4.38;;;2.38;;
10586;SDS011;5341;47.606;7.576;2023-08-12T04:30:49;2.83;;;2.38;;
10586;SDS011;5341;47.606;7.576;2023-08-12T04:33:20;2.80;;;2.30;;
10586;SDS011;5341;47.606;7.576;2023-08-12T04:35:49;2.40;;;2.20;;
10586;SDS011;5341;47.606;7.576;2023-08-12T04:38:19;2.38;;;2.00;;
10586;SDS011;5341;47.606;7.576;2023-08-12T04:40:48;3.13;;;2.30;;
10586;SDS011;5341;47.606;7.576;2023-08-12T04:43:16;2.80;;;2.40;;
10586;SDS011;5341;47.606;7.576;2023-08-12T04:45:44;2.72;;;2.38;;
10586;SDS011;5341;47.606;7.576;2023-08-12T04:48:13;2.33;;;2.13;;
10586;SDS011;5341;47.606;7.576;2023-08-12T04:50:43;3.20;;;2.40;;
10586;SDS011;5341;47.606;7.576;2023-08-12T04:53:10;4.03;;;2.50;;
10586;SDS011;5341;47.606;7.576;2023-08-12T04:55:39;3.33;;;2.33;;
10586;SDS011;5341;47.606;7.576;2023-08-12T04:58:06;2.78;;;2.58;;
10586;SDS011;5341;47.606;7.576;2023-08-12T05:00:34;4.72;;;2.30;;
10586;SDS011;5341;47.606;7.576;2023-08-12T05:03:02;5.15;;;2.75;;
10586;SDS011;5341;47.606;7.576;2023-08-12T05:05:29;2.72;;;2.47;;
10586;SDS011;5341;47.606;7.576;2023-08-12T05:07:59;3.83;;;2.25;;
10586;SDS011;5341;47.606;7.576;2023-08-12T05:10:26;3.13;;;2.38;;
10586;SDS011;5341;47.606;7.576;2023-08-12T05:12:54;5.47;;;2.50;;
10586;SDS011;5341;47.606;7.576;2023-08-12T05:15:25;2.70;;;2.50;;
10586;SDS011;5341;47.606;7.576;2023-08-12T05:17:52;2.97;;;2.47;;
10586;SDS011;5341;47.606;7.576;2023-08-12T05:20:21;2.95;;;2.60;;
10586;SDS011;5341;47.606;7.576;2023-08-12T05:22:49;3.35;;;2.35;;
10586;SDS011;5341;47.606;7.576;2023-08-12T05:25:18;2.72;;;2.30;;
10586;SDS011;5341;47.606;7.576;2023-08-12T05:27:45;2.80;;;2.35;;
10586;SDS011;5341;47.606;7.576;2023-08-12T05:30:13;5.05;;;2.55;;
10586;SDS011;5341;47.606;7.576;2023-08-12T05:32:40;4.95;;;2.70;;
10586;SDS011;5341;47.606;7.576;2023-08-12T05:35:08;3.08;;;2.30;;
10586;SDS011;5341;47.606;7.576;2023-08-12T05:37:35;2.60;;;2.20;;
10586;SDS011;5341;47.606;7.576;2023-08-12T05:40:03;2.30;;;2.10;;
10586;SDS011;5341;47.606;7.576;2023-08-12T05:42:35;3.25;;;2.60;;
10586;SDS011;5341;47.606;7.576;2023-08-12T05:45:03;3.95;;;3.05;;
10586;SDS011;5341;47.606;7.576;2023-08-12T05:47:30;3.13;;;2.58;;
10586;SDS011;5341;47.606;7.576;2023-08-12T05:49:58;3.50;;;2.67;;
10586;SDS011;5341;47.606;7.576;2023-08-12T05:52:26;3.47;;;3.00;;
10586;SDS011;5341;47.606;7.576;2023-08-12T05:54:53;3.70;;;2.83;;
10586;SDS011;5341;47.606;7.576;2023-08-12T05:57:21;3.05;;;2.75;;
10586;SDS011;5341;47.606;7.576;2023-08-12T05:59:50;2.85;;;2.50;;
10586;SDS011;5341;47.606;7.576;2023-08-12T06:02:17;3.65;;;2.67;;
10586;SDS011;5341;47.606;7.576;2023-08-12T06:04:45;4.13;;;2.80;;
10586;SDS011;5341;47.606;7.576;2023-08-12T06:07:12;3.30;;;2.25;;
10586;SDS011;5341;47.606;7.576;2023-08-12T06:09:39;3.22;;;2.30;;
10586;SDS011;5341;47.606;7.576;2023-08-12T06:12:07;3.03;;;2.63;;
10586;SDS011;5341;47.606;7.576;2023-08-12T06:14:36;3.15;;;2.50;;
10586;SDS011;5341;47.606;7.576;2023-08-12T06:17:06;4.30;;;2.50;;
10586;SDS011;5341;47.606;7.576;2023-08-12T06:19:36;3.63;;;2.90;;
10586;SDS011;5341;47.606;7.576;2023-08-12T06:22:04;2.80;;;2.38;;
10586;SDS011;5341;47.606;7.576;2023-08-12T06:24:31;3.92;;;2.63;;
10586;SDS011;5341;47.606;7.576;2023-08-12T06:26:59;2.50;;;2.30;;
10586;SDS011;5341;47.606;7.576;2023-08-12T06:29:26;3.05;;;2.40;;
10586;SDS011;5341;47.606;7.576;2023-08-12T06:31:54;3.78;;;2.90;;
10586;SDS011;5341;47.606;7.576;2023-08-12T06:34:22;4.00;;;2.70;;
10586;SDS011;5341;47.606;7.576;2023-08-12T06:36:50;2.75;;;2.40;;
10586;SDS011;5341;47.606;7.576;2023-08-12T06:39:17;3.63;;;2.67;;
10586;SDS011;5341;47.606;7.576;2023-08-12T06:41:45;3.10;;;2.80;;
10586;SDS011;5341;47.606;7.576;2023-08-12T06:44:12;6.30;;;2.75;;
10586;SDS011;5341;47.606;7.576;2023-08-12T06:46:40;4.13;;;2.80;;
10586;SDS011;5341;47.606;7.576;2023-08-12T06:49:07;3.33;;;2.55;;
10586;SDS011;5341;47.606;7.576;2023-08-12T06:51:36;3.97;;;2.63;;
10586;SDS011;5341;47.606;7.576;2023-08-12T06:54:04;4.32;;;2.92;;
10586;SDS011;5341;47.606;7.576;2023-08-12T06:56:31;4.05;;;2.58;;
10586;SDS011;5341;47.606;7.576;2023-08-12T06:58:59;7.28;;;3.08;;
10586;SDS011;5341;47.606;7.576;2023-08-12T07:01:26;3.88;;;2.45;;
10586;SDS011;5341;47.606;7.576;2023-08-12T07:03:54;3.42;;;2.58;;
10586;SDS011;5341;47.606;7.576;2023-08-12T07:06:21;3.53;;;2.67;;
10586;SDS011;5341;47.606;7.576;2023-08-12T07:08:50;4.55;;;2.67;;
10586;SDS011;5341;47.606;7.576;2023-08-12T07:11:18;6.00;;;2.90;;
10586;SDS011;5341;47.606;7.576;2023-08-12T07:13:45;3.75;;;2.80;;
10586;SDS011;5341;47.606;7.576;2023-08-12T07:16:13;3.97;;;2.72;;
10586;SDS011;5341;47.606;7.576;2023-08-12T07:18:41;4.00;;;2.50;;
10586;SDS011;5341;47.606;7.576;2023-08-12T07:21:08;4.20;;;2.78;;
10586;SDS011;5341;47.606;7.576;2023-08-12T07:23:36;3.90;;;3.15;;
10586;SDS011;5341;47.606;7.576;2023-08-12T07:26:05;4.05;;;2.90;;
10586;SDS011;5341;47.606;7.576;2023-08-12T07:28:33;2.85;;;2.60;;
10586;SDS011;5341;47.606;7.576;2023-08-12T07:31:00;3.22;;;2.85;;
10586;SDS011;5341;47.606;7.576;2023-08-12T07:33:28;6.40;;;2.95;;
10586;SDS011;5341;47.606;7.576;2023-08-12T07:35:55;3.58;;;2.90;;
10586;SDS011;5341;47.606;7.576;2023-08-12T07:38:23;4.53;;;2.80;;
10586;SDS011;5341;47.606;7.576;2023-08-12T07:40:50;4.40;;;2.90;;
10586;SDS011;5341;47.606;7.576;2023-08-12T07:43:19;3.13;;;2.83;;
10586;SDS011;5341;47.606;7.576;2023-08-12T07:45:50;3.50;;;2.70;;
10586;SDS011;5341;47.606;7.576;2023-08-12T07:48:18;5.13;;;2.63;;
10586;SDS011;5341;47.606;7.576;2023-08-12T07:50:46;4.65;;;3.10;;
10586;SDS011;5341;47.606;7.576;2023-08-12T07:53:21;3.65;;;3.00;;
10586;SDS011;5341;47.606;7.576;2023-08-12T07:55:49;5.53;;;3.20;;
10586;SDS011;5341;47.606;7.576;2023-08-12T07:58:18;5.78;;;3.30;;
10586;SDS011;5341;47.606;7.576;2023-08-12T08:00:46;5.25;;;3.45;;
10586;SDS011;5341;47.606;7.576;2023-08-12T08:03:14;7.03;;;3.45;;
10586;SDS011;5341;47.606;7.576;2023-08-12T08:05:41;6.45;;;3.13;;
10586;SDS011;5341;47.606;7.576;2023-08-12T08:08:11;4.80;;;3.30;;
10586;SDS011;5341;47.606;7.576;2023-08-12T08:10:39;5.22;;;3.17;;
10586;SDS011;5341;47.606;7.576;2023-08-12T08:13:06;4.93;;;3.28;;
10586;SDS011;5341;47.606;7.576;2023-08-12T08:15:36;3.65;;;3.10;;
10586;SDS011;5341;47.606;7.576;2023-08-12T08:18:03;4.10;;;3.45;;
10586;SDS011;5341;47.606;7.576;2023-08-12T08:20:32;5.60;;;3.35;;
10586;SDS011;5341;47.606;7.576;2023-08-12T08:23:00;3.60;;;3.15;;
10586;SDS011;5341;47.606;7.576;2023-08-12T08:25:28;4.70;;;3.20;;
10586;SDS011;5341;47.606;7.576;2023-08-12T08:27:55;3.97;;;2.95;;
10586;SDS011;5341;47.606;7.576;2023-08-12T08:30:23;5.47;;;3.15;;
10586;SDS011;5341;47.606;7.576;2023-08-12T08:32:52;3.88;;;3.03;;
10586;SDS011;5341;47.606;7.576;2023-08-12T08:35:20;3.70;;;2.60;;
10586;SDS011;5341;47.606;7.576;2023-08-12T08:37:47;6.63;;;3.35;;
10586;SDS011;5341;47.606;7.576;2023-08-12T08:40:16;4.45;;;2.67;;
10586;SDS011;5341;47.606;7.576;2023-08-12T08:42:44;4.68;;;3.10;;
10586;SDS011;5341;47.606;7.576;2023-08-12T08:45:18;4.55;;;3.50;;
10586;SDS011;5341;47.606;7.576;2023-08-12T08:47:48;3.72;;;3.05;;
10586;SDS011;5341;47.606;7.576;2023-08-12T08:50:19;5.03;;;2.90;;
10586;SDS011;5341;47.606;7.576;2023-08-12T08:52:48;3.45;;;3.00;;
10586;SDS011;5341;47.606;7.576;2023-08-12T08:55:18;3.92;;;2.95;;
10586;SDS011;5341;47.606;7.576;2023-08-12T08:57:47;3.38;;;3.00;;
10586;SDS011;5341;47.606;7.576;2023-08-12T09:00:16;3.17;;;2.88;;
10586;SDS011;5341;47.606;7.576;2023-08-12T09:02:44;4.30;;;3.13;;
10586;SDS011;5341;47.606;7.576;2023-08-12T09:05:13;3.25;;;2.90;;
10586;SDS011;5341;47.606;7.576;2023-08-12T09:07:43;6.07;;;3.17;;
10586;SDS011;5341;47.606;7.576;2023-08-12T09:10:11;4.97;;;3.30;;
10586;SDS011;5341;47.606;7.576;2023-08-12T09:12:39;5.88;;;3.45;;
10586;SDS011;5341;47.606;7.576;2023-08-12T09:15:07;5.05;;;3.55;;
10586;SDS011;5341;47.606;7.576;2023-08-12T09:17:35;4.65;;;3.30;;
10586;SDS011;5341;47.606;7.576;2023-08-12T09:20:03;3.38;;;2.75;;
10586;SDS011;5341;47.606;7.576;2023-08-12T09:22:36;4.15;;;3.28;;
10586;SDS011;5341;47.606;7.576;2023-08-12T09:25:06;5.68;;;3.45;;
10586;SDS011;5341;47.606;7.576;2023-08-12T09:27:35;4.10;;;3.10;;
10586;SDS011;5341;47.606;7.576;2023-08-12T09:30:03;5.10;;;3.35;;
10586;SDS011;5341;47.606;7.576;2023-08-12T09:32:31;5.53;;;3.60;;
10586;SDS011;5341;47.606;7.576;2023-08-12T09:35:00;3.90;;;3.42;;
10586;SDS011;5341;47.606;7.576;2023-08-12T09:37:31;5.13;;;3.53;;
10586;SDS011;5341;47.606;7.576;2023-08-12T09:39:58;5.30;;;3.50;;
10586;SDS011;5341;47.606;7.576;2023-08-12T09:42:28;5.10;;;3.33;;
10586;SDS011;5341;47.606;7.576;2023-08-12T09:44:56;4.15;;;3.50;;
10586;SDS011;5341;47.606;7.576;2023-08-12T09:47:24;4.93;;;3.90;;
10586;SDS011;5341;47.606;7.576;2023-08-12T09:49:52;5.63;;;3.60;;
10586;SDS011;5341;47.606;7.576;2023-08-12T09:52:19;5.10;;;3.58;;
10586;SDS011;5341;47.606;7.576;2023-08-12T09:54:49;4.05;;;3.65;;
10586;SDS011;5341;47.606;7.576;2023-08-12T09:57:22;6.45;;;3.60;;
10586;SDS011;5341;47.606;7.576;2023-08-12T09:59:54;3.78;;;3.38;;
10586;SDS011;5341;47.606;7.576;2023-08-12T10:02:23;4.55;;;3.53;;
10586;SDS011;5341;47.606;7.576;2023-08-12T10:04:53;4.10;;;3.50;;
10586;SDS011;5341;47.606;7.576;2023-08-12T10:07:23;7.68;;;3.85;;
10586;SDS011;5341;47.606;7.576;2023-08-12T10:09:52;5.47;;;3.78;;
10586;SDS011;5341;47.606;7.576;2023-08-12T10:12:21;5.82;;;3.85;;
10586;SDS011;5341;47.606;7.576;2023-08-12T10:14:55;5.78;;;3.50;;
10586;SDS011;5341;47.606;7.576;2023-08-12T10:17:29;3.78;;;3.13;;
10586;SDS011;5341;47.606;7.576;2023-08-12T10:20:06;3.88;;;3.30;;
10586;SDS011;5341;47.606;7.576;2023-08-12T10:22:43;3.50;;;2.95;;
10586;SDS011;5341;47.606;7.576;2023-08-12T10:25:14;4.15;;;3.35;;
10586;SDS011;5341;47.606;7.576;2023-08-12T10:27:43;4.35;;;3.67;;
10586;SDS011;5341;47.606;7.576;2023-08-12T10:30:20;5.00;;;3.58;;
10586;SDS011;5341;47.606;7.576;2023-08-12T10:32:52;5.53;;;4.13;;
10586;SDS011;5341;47.606;7.576;2023-08-12T10:35:24;4.35;;;3.58;;
10586;SDS011;5341;47.606;7.576;2023-08-12T10:38:11;4.25;;;3.47;;
10586;SDS011;5341;47.606;7.576;2023-08-12T10:40:46;5.82;;;3.80;;
10586;SDS011;5341;47.606;7.576;2023-08-12T10:43:17;3.80;;;3.50;;
10586;SDS011;5341;47.606;7.576;2023-08-12T10:45:54;4.65;;;3.38;;
10586;SDS011;5341;47.606;7.576;2023-08-12T10:48:23;4.90;;;3.20;;
10586;SDS011;5341;47.606;7.576;2023-08-12T10:50:51;3.63;;;3.28;;
10586;SDS011;5341;47.606;7.576;2023-08-12T10:53:20;3.47;;;3.17;;
10586;SDS011;5341;47.606;7.576;2023-08-12T10:55:49;3.78;;;3.10;;
10586;SDS011;5341;47.606;7.576;2023-08-12T10:58:26;4.88;;;2.90;;
10586;SDS011;5341;47.606;7.576;2023-08-12T11:00:59;3.70;;;3.03;;
10586;SDS011;5341;47.606;7.576;2023-08-12T11:03:35;3.80;;;2.97;;
10586;SDS011;5341;47.606;7.576;2023-08-12T11:06:13;4.63;;;3.05;;
10586;SDS011;5341;47.606;7.576;2023-08-12T11:08:45;3.83;;;3.42;;
10586;SDS011;5341;47.606;7.576;2023-08-12T11:11:18;4.30;;;3.35;;
10586;SDS011;5341;47.606;7.576;2023-08-12T11:13:49;4.60;;;2.97;;
10586;SDS011;5341;47.606;7.576;2023-08-12T11:16:21;3.42;;;2.90;;
10586;SDS011;5341;47.606;7.576;2023-08-12T11:19:03;3.03;;;2.70;;
10586;SDS011;5341;47.606;7.576;2023-08-12T11:21:32;5.10;;;3.00;;
10586;SDS011;5341;47.606;7.576;2023-08-12T11:24:05;4.85;;;3.20;;
10586;SDS011;5341;47.606;7.576;2023-08-12T11:26:40;5.57;;;2.95;;
10586;SDS011;5341;47.606;7.576;2023-08-12T11:29:13;4.30;;;3.03;;
10586;SDS011;5341;47.606;7.576;2023-08-12T11:31:46;4.50;;;3.20;;
10586;SDS011;5341;47.606;7.576;2023-08-12T11:34:16;3.47;;;2.88;;
10586;SDS011;5341;47.606;7.576;2023-08-12T11:36:44;3.60;;;3.05;;
10586;SDS011;5341;47.606;7.576;2023-08-12T11:39:12;4.07;;;3.03;;
10586;SDS011;5341;47.606;7.576;2023-08-12T11:41:45;3.45;;;2.95;;
10586;SDS011;5341;47.606;7.576;2023-08-12T11:44:17;5.43;;;3.17;;
10586;SDS011;5341;47.606;7.576;2023-08-12T11:46:50;6.50;;;2.95;;
10586;SDS011;5341;47.606;7.576;2023-08-12T11:49:17;3.10;;;2.80;;
10586;SDS011;5341;47.606;7.576;2023-08-12T11:51:45;4.20;;;3.13;;
10586;SDS011;5341;47.606;7.576;2023-08-12T11:54:15;3.45;;;2.80;;
10586;SDS011;5341;47.606;7.576;2023-08-12T11:56:43;4.45;;;2.70;;
10586;SDS011;5341;47.606;7.576;2023-08-12T11:59:10;3.00;;;2.70;;
10586;SDS011;5341;47.606;7.576;2023-08-12T12:01:38;5.63;;;3.15;;
10586;SDS011;5341;47.606;7.576;2023-08-12T12:04:07;4.40;;;2.75;;
10586;SDS011;5341;47.606;7.576;2023-08-12T12:06:37;4.00;;;2.75;;
10586;SDS011;5341;47.606;7.576;2023-08-12T12:09:05;3.53;;;3.13;;
10586;SDS011;5341;47.606;7.576;2023-08-12T12:11:35;3.80;;;3.10;;
10586;SDS011;5341;47.606;7.576;2023-08-12T12:14:03;5.05;;;2.72;;
10586;SDS011;5341;47.606;7.576;2023-08-12T12:16:38;3.10;;;2.72;;
10586;SDS011;5341;47.606;7.576;2023-08-12T12:19:12;3.33;;;3.03;;
10586;SDS011;5341;47.606;7.576;2023-08-12T12:21:42;4.57;;;3.00;;
10586;SDS011;5341;47.606;7.576;2023-08-12T12:24:12;3.78;;;3.13;;
10586;SDS011;5341;47.606;7.576;2023-08-12T12:26:40;4.85;;;2.75;;
10586;SDS011;5341;47.606;7.576;2023-08-12T12:29:09;5.85;;;3.20;;
10586;SDS011;5341;47.606;7.576;2023-08-12T12:31:39;3.55;;;2.83;;
10586;SDS011;5341;47.606;7.576;2023-08-12T12:34:10;4.32;;;2.72;;
10586;SDS011;5341;47.606;7.576;2023-08-12T12:36:39;8.45;;;3.25;;
10586;SDS011;5341;47.606;7.576;2023-08-12T12:39:07;3.42;;;2.70;;
10586;SDS011;5341;47.606;7.576;2023-08-12T12:41:34;3.28;;;2.83;;
10586;SDS011;5341;47.606;7.576;2023-08-12T12:44:02;3.58;;;2.90;;
10586;SDS011;5341;47.606;7.576;2023-08-12T12:46:30;4.20;;;3.00;;
10586;SDS011;5341;47.606;7.576;2023-08-12T12:48:57;4.15;;;2.67;;
10586;SDS011;5341;47.606;7.576;2023-08-12T12:51:26;7.50;;;3.40;;
10586;SDS011;5341;47.606;7.576;2023-08-12T12:53:53;4.05;;;3.25;;
10586;SDS011;5341;47.606;7.576;2023-08-12T12:56:21;3.78;;;3.00;;
10586;SDS011;5341;47.606;7.576;2023-08-12T12:58:48;5.47;;;2.90;;
10586;SDS011;5341;47.606;7.576;2023-08-12T13:01:16;3.40;;;2.92;;
10586;SDS011;5341;47.606;7.576;2023-08-12T13:03:43;5.38;;;2.65;;
10586;SDS011;5341;47.606;7.576;2023-08-12T13:06:10;3.55;;;2.85;;
10586;SDS011;5341;47.606;7.576;2023-08-12T13:08:39;3.33;;;2.92;;
10586;SDS011;5341;47.606;7.576;2023-08-12T13:11:07;5.57;;;3.22;;
10586;SDS011;5341;47.606;7.576;2023-08-12T13:13:34;5.50;;;2.90;;
10586;SDS011;5341;47.606;7.576;2023-08-12T13:16:02;4.90;;;3.20;;
10586;SDS011;5341;47.606;7.576;2023-08-12T13:18:29;4.32;;;2.50;;
10586;SDS011;5341;47.606;7.576;2023-08-12T13:20:57;2.97;;;2.70;;
10586;SDS011;5341;47.606;7.576;2023-08-12T13:23:24;3.63;;;2.65;;
10586;SDS011;5341;47.606;7.576;2023-08-12T13:25:53;5.28;;;3.08;;
10586;SDS011;5341;47.606;7.576;2023-08-12T13:28:21;3.30;;;2.80;;
10586;SDS011;5341;47.606;7.576;2023-08-12T13:30:53;4.45;;;2.80;;
10586;SDS011;5341;47.606;7.576;2023-08-12T13:33:28;5.97;;;3.10;;
10586;SDS011;5341;47.606;7.576;2023-08-12T13:35:56;5.65;;;3.25;;
10586;SDS011;5341;47.606;7.576;2023-08-12T13:38:23;3.78;;;2.78;;
10586;SDS011;5341;47.606;7.576;2023-08-12T13:40:53;4.38;;;2.70;;
10586;SDS011;5341;47.606;7.576;2023-08-12T13:43:20;3.55;;;2.80;;
10586;SDS011;5341;47.606;7.576;2023-08-12T13:45:48;3.92;;;3.10;;
10586;SDS011;5341;47.606;7.576;2023-08-12T13:48:16;3.28;;;2.70;;
10586;SDS011;5341;47.606;7.576;2023-08-12T13:50:43;3.53;;;3.00;;
10586;SDS011;5341;47.606;7.576;2023-08-12T13:53:15;3.47;;;2.97;;
10586;SDS011;5341;47.606;7.576;2023-08-12T13:55:43;5.30;;;2.65;;
10586;SDS011;5341;47.606;7.576;2023-08-12T13:58:13;4.22;;;2.90;;
10586;SDS011;5341;47.606;7.576;2023-08-12T14:00:43;4.78;;;3.20;;
10586;SDS011;5341;47.606;7.576;2023-08-12T14:03:12;5.70;;;3.22;;
10586;SDS011;5341;47.606;7.576;2023-08-12T14:05:40;3.65;;;2.90;;
10586;SDS011;5341;47.606;7.576;2023-08-12T14:08:08;5.30;;;3.60;;
10586;SDS011;5341;47.606;7.576;2023-08-12T14:10:36;4.53;;;3.10;;
10586;SDS011;5341;47.606;7.576;2023-08-12T14:13:04;3.92;;;3.05;;
10586;SDS011;5341;47.606;7.576;2023-08-12T14:15:34;4.40;;;3.28;;
10586;SDS011;5341;47.606;7.576;2023-08-12T14:18:01;4.13;;;3.17;;
10586;SDS011;5341;47.606;7.576;2023-08-12T14:20:29;4.45;;;3.15;;
10586;SDS011;5341;47.606;7.576;2023-08-12T14:22:57;6.05;;;3.20;;
10586;SDS011;5341;47.606;7.576;2023-08-12T14:25:25;5.63;;;3.00;;
10586;SDS011;5341;47.606;7.576;2023-08-12T14:27:52;6.75;;;3.40;;
10586;SDS011;5341;47.606;7.576;2023-08-12T14:30:22;4.43;;;3.10;;
10586;SDS011;5341;47.606;7.576;2023-08-12T14:32:52;9.70;;;3.35;;
10586;SDS011;5341;47.606;7.576;2023-08-12T14:35:21;5.88;;;3.80;;
10586;SDS011;5341;47.606;7.576;2023-08-12T14:37:48;6.45;;;3.25;;
10586;SDS011;5341;47.606;7.576;2023-08-12T14:40:16;4.72;;;3.28;;
10586;SDS011;5341;47.606;7.576;2023-08-12T14:42:43;6.05;;;2.92;;
10586;SDS011;5341;47.606;7.576;2023-08-12T14:45:11;4.80;;;3.13;;
10586;SDS011;5341;47.606;7.576;2023-08-12T14:47:38;4.63;;;2.90;;
10586;SDS011;5341;47.606;7.576;2023-08-12T14:50:07;4.50;;;3.13;;
10586;SDS011;5341;47.606;7.576;2023-08-12T14:52:35;6.72;;;3.08;;
10586;SDS011;5341;47.606;7.576;2023-08-12T14:55:03;5.50;;;3.53;;
10586;SDS011;5341;47.606;7.576;2023-08-12T14:57:30;5.70;;;3.25;;
10586;SDS011;5341;47.606;7.576;2023-08-12T14:59:58;5.75;;;3.20;;
10586;SDS011;5341;47.606;7.576;2023-08-12T15:02:25;3.45;;;2.70;;
10586;SDS011;5341;47.606;7.576;2023-08-12T15:04:53;7.28;;;3.70;;
10586;SDS011;5341;47.606;7.576;2023-08-12T15:07:22;7.43;;;3.10;;
10586;SDS011;5341;47.606;7.576;2023-08-12T15:09:49;5.00;;;3.00;;
10586;SDS011;5341;47.606;7.576;2023-08-12T15:12:18;5.80;;;3.20;;